METAR Data
IDs: Format: Raw Decoded Include TAF

Data at: 1830 UTC 26 Sep 2021

METAR for:KDEH (Decorah Muni, IA, US)
Text:KDEH 261815Z AUTO 18008G13KT 150V220 9SM 24/13 A2980 RMK AO2
Temperature: 24.0°C ( 75°F)
Dewpoint: 13.0°C ( 55°F) [RH = 50%]
Pressure (altimeter):29.80 inches Hg (1009.2 mb)
Winds:from the S (180 degrees) at 9 MPH (8 knots; 4.1 m/s) gusting to 15 MPH (13 knots; 6.7 m/s)
Visibility: 9 sm ( 14 km)
QC Flag:automated observation with no human augmentation

TAF for:KDEH (Decorah Muni, IA, US)
Text:No data found